Terminal Aerodrome Forecast
Issued by NWS Springfield, MO

Home | Current Version | Previous Version | Graphics & Text | Print | Product List | Glossary On
Versions: 1 2 3 4 5 6 7 8 9 10 11 12 13 14 15 16 17 18 19 20 21 22
000
FTUS43 KSGF 261400 AAA
TAFSGF
TAF AMD
KSGF 261406Z 2614/2712 29007KT 2SM -SN BKN025 OVC050 WS020/26035KT
      TEMPO 2614/2615 1SM -RASN OVC020
     FM261800 29012G22KT P6SM BKN035
     FM270000 31012KT P6SM SCT250=

USA.gov is the U.S. government's official web portal to all federal, state and local government web resources and services.